Knossos Palace — SYQO — position and weather

sailwx.info

Track history (hours):
 
Tides and Currents Weather Stations Pressure Air Temp Water Temp Dewpoint Dewpoint Depression Visibility Wind Speed Wind Dir Waves Ship Positions

Knossos Palace

Last reported at 2014-Aug-01 21:33 UTC. Time now 2014-Aug-01 22:30 UTC.
Position N 37°10' E 023°58'.

Length 214 m; beam 26.4 m; draft 7.3 m.

Type: Passenger vessel. MMSI: 237641000.

Date/timePositionNaut miles runAvg speedWind from/ knotsBaromVisibWave heightAir tempDewpointWater temp
2014-Aug-01 21:33N 37°10' E 023°58'2621.7
2014-Aug-01 20:21N 37°34' E 023°45'1721.3
2014-Aug-01 19:33N 37°49' E 023°37'7 7.4
2014-Aug-01 18:33N 37°57' E 023°38'0 0.0
2014-Aug-01 17:32N 37°57' E 023°38'0 0.0
2014-Aug-01 16:32N 37°57' E 023°38'1 0.6
2014-Aug-01 15:33N 37°56' E 023°37'2121.1
2014-Aug-01 14:33N 37°37' E 023°48'2524.5
2014-Aug-01 13:33N 37°14' E 023°58'2424.5
2014-Aug-01 12:34N 36°51' E 024°09'2424.4
2014-Aug-01 11:33N 36°29' E 024°21'2423.8
2014-Aug-01 10:34N 36°08' E 024°36'2322.6
2014-Aug-01 09:33N 35°48' E 024°50'32 7.4
2014-Aug-01 05:18N 35°21' E 025°09'22 7.9
2014-Aug-01 02:33N 35°40' E 024°56'2020.4
2014-Aug-01 01:33N 35°58' E 024°44'2020.4
2014-Aug-01 00:33N 36°15' E 024°31'2120.9
2014-Jul-31 23:33N 36°33' E 024°18'2121.0
2014-Jul-31 22:33N 36°52' E 024°07'2221.6
2014-Jul-31 21:33N 37°12' E 023°57'2221.5
2014-Jul-31 20:33N 37°32' E 023°46'2121.2
2014-Jul-31 19:33N 37°52' E 023°37'5 4.9
2014-Jul-31 18:33N 37°57' E 023°38'0 0.0
2014-Jul-31 17:33N 37°57' E 023°38'0 0.0
2014-Jul-31 16:33N 37°57' E 023°38'0 0.0
2014-Jul-31 15:33N 37°57' E 023°38'0 0.0
2014-Jul-31 14:33N 37°57' E 023°38'0 0.0
2014-Jul-31 13:33N 37°57' E 023°38'0 0.0
2014-Jul-31 12:33N 37°57' E 023°38'0 0.0
2014-Jul-31 11:33N 37°57' E 023°38'0 0.0
2014-Jul-31 10:33N 37°57' E 023°38'0 0.0
2014-Jul-31 09:33N 37°57' E 023°38'0 0.0
2014-Jul-31 08:33N 37°57' E 023°38'0 0.0
2014-Jul-31 07:33N 37°57' E 023°38'0 0.0
2014-Jul-31 06:33N 37°57' E 023°38'0 0.0
2014-Jul-31 05:33N 37°57' E 023°38'0 0.0
2014-Jul-31 04:33N 37°57' E 023°38'2 1.9
2014-Jul-31 03:33N 37°55' E 023°37'1919.1
2014-Jul-31 02:33N 37°38' E 023°47'2120.6
2014-Jul-31 01:33N 37°18' E 023°56'2020.5
2014-Jul-31 00:33N 36°59' E 024°05'2221.1
2014-Jul-30 23:32N 36°39' E 024°15'2020.9
2014-Jul-30 22:33N 36°21' E 024°27'2020.4
2014-Jul-30 21:33N 36°03' E 024°40'2020.2
2014-Jul-30 20:33N 35°46' E 024°52'2120.5
2014-Jul-30 19:33N 35°28' E 025°05'8 8.2
2014-Jul-30 18:33N 35°21' E 025°09'0 0.0
2014-Jul-30 17:28N 35°21' E 025°09'0 0.0
2014-Jul-30 16:31N 35°21' E 025°09'0 0.1
2014-Jul-30 15:33N 35°21' E 025°09'2020.1
2014-Jul-30 14:33N 35°39' E 024°57'2423.9
2014-Jul-30 13:34N 35°59' E 024°42'2424.5
2014-Jul-30 12:34N 36°20' E 024°27'2424.1
2014-Jul-30 11:33N 36°41' E 024°12'2423.9
2014-Jul-30 10:33N 37°03' E 024°01'2423.9
2014-Jul-30 09:34N 37°25' E 023°49'2424.0
2014-Jul-30 08:34N 37°48' E 023°38'9 8.9
2014-Jul-30 07:33N 37°57' E 023°38'0 0.0
2014-Jul-30 06:31N 37°57' E 023°38'0 0.0
2014-Jul-30 05:31N 37°57' E 023°38'0 0.0
2014-Jul-30 04:31N 37°57' E 023°38'0 0.4
2014-Jul-30 03:33N 37°56' E 023°38'2019.7
2014-Jul-30 02:33N 37°38' E 023°47'2821.2
2014-Jul-30 01:13N 37°11' E 023°59'1420.8
2014-Jul-30 00:33N 36°59' E 024°05'2121.0
2014-Jul-29 23:33N 36°39' E 024°15'2120.9
2014-Jul-29 22:33N 36°21' E 024°27'2020.3
2014-Jul-29 21:33N 36°03' E 024°40'2019.9
2014-Jul-29 20:33N 35°46' E 024°52'2020.4
2014-Jul-29 19:33N 35°28' E 025°05'8 6.7
2014-Jul-29 18:19N 35°21' E 025°09'0 0.0
2014-Jul-29 17:23N 35°21' E 025°09'0 0.0
2014-Jul-29 16:29N 35°21' E 025°09'0 0.0
2014-Jul-29 15:33N 35°21' E 025°09'0 0.0
2014-Jul-29 14:33N 35°21' E 025°09'0 0.0
2014-Jul-29 13:33N 35°21' E 025°09'0 0.0
2014-Jul-29 12:33N 35°21' E 025°09'0 0.0
2014-Jul-29 11:24N 35°21' E 025°09'0 0.0
2014-Jul-29 10:32N 35°21' E 025°09'0 0.0
2014-Jul-29 09:33N 35°21' E 025°09'0 0.0
2014-Jul-29 08:33N 35°21' E 025°09'0 0.0
2014-Jul-29 07:33N 35°21' E 025°09'0 0.0
2014-Jul-29 06:32N 35°21' E 025°09'0 0.0
2014-Jul-29 05:27N 35°21' E 025°09'0 0.0
2014-Jul-29 04:33N 35°21' E 025°09'3 2.2
2014-Jul-29 03:25N 35°23' E 025°09'1820.4
2014-Jul-29 02:33N 35°38' E 024°58'2121.0
2014-Jul-29 01:33N 35°56' E 024°45'2121.1
2014-Jul-29 00:33N 36°15' E 024°31'2120.6
2014-Jul-28 23:33N 36°32' E 024°19'2020.4
2014-Jul-28 22:33N 36°51' E 024°08'2120.9
2014-Jul-28 21:33N 37°10' E 023°57'2121.1
2014-Jul-28 20:33N 37°30' E 023°47'2121.2
2014-Jul-28 19:33N 37°49' E 023°37'8 7.8
2014-Jul-28 18:33N 37°57' E 023°38'0 0.0
2014-Jul-28 17:31N 37°57' E 023°38'0 0.0
2014-Jul-28 16:31N 37°57' E 023°38'0 0.0
2014-Jul-28 15:31N 37°57' E 023°38'0 0.0
2014-Jul-28 14:31N 37°57' E 023°38'0 0.0
2014-Jul-28 13:31N 37°57' E 023°38'0 0.0
2014-Jul-28 12:31N 37°57' E 023°38'0 0.0
2014-Jul-28 11:31N 37°57' E 023°38'0 0.0
2014-Jul-28 10:28N 37°57' E 023°38'0 0.0
2014-Jul-28 09:31N 37°57' E 023°38'0 0.0
2014-Jul-28 08:31N 37°57' E 023°38'0 0.0
2014-Jul-28 07:31N 37°57' E 023°38'0 0.0
2014-Jul-28 06:31N 37°57' E 023°38'0 0.0
2014-Jul-28 05:31N 37°57' E 023°38'0 0.0
2014-Jul-28 04:31N 37°57' E 023°38'0 0.5
2014-Jul-28 03:33N 37°56' E 023°38'1919.0
2014-Jul-28 02:33N 37°39' E 023°47'2121.0
2014-Jul-28 01:33N 37°19' E 023°55'2120.8
2014-Jul-28 00:33N 36°59' E 024°04'2221.1
2014-Jul-27 23:31N 36°39' E 024°15'2020.8
2014-Jul-27 22:33N 36°22' E 024°28'2020.4
2014-Jul-27 21:33N 36°04' E 024°40'2120.5
2014-Jul-27 20:33N 35°46' E 024°52'2720.9
2014-Jul-27 19:16N 35°23' E 025°09'2 2.8
2014-Jul-27 18:26N 35°21' E 025°09'0 0.0
2014-Jul-27 15:33N 35°21' E 025°09'2020.4
2014-Jul-27 14:33N 35°39' E 024°57'2424.2
2014-Jul-27 13:34N 35°60' E 024°42'2424.2
2014-Jul-27 12:33N 36°21' E 024°27'2423.7
2014-Jul-27 11:32N 36°42' E 024°13'2323.8
2014-Jul-27 10:33N 37°03' E 024°01'2724.2
2014-Jul-27 09:25N 37°28' E 023°48'2123.7
2014-Jul-27 08:33N 37°48' E 023°38'9 9.1
2014-Jul-27 07:33N 37°57' E 023°38'0 0.0
2014-Jul-27 06:28N 37°57' E 023°38'0 0.0
2014-Jul-27 05:25N 37°57' E 023°38'0 0.0
2014-Jul-27 04:31N 37°57' E 023°38'2 1.8
2014-Jul-27 03:33N 37°55' E 023°37'1918.9
2014-Jul-27 02:33N 37°38' E 023°47'4120.6
2014-Jul-27 00:33N 36°59' E 024°05'2221.2
2014-Jul-26 23:31N 36°39' E 024°15'2021.0
2014-Jul-26 22:34N 36°21' E 024°27'2120.6
2014-Jul-26 21:33N 36°03' E 024°40'2020.3
2014-Jul-26 20:33N 35°46' E 024°52'2020.3
2014-Jul-26 19:33N 35°28' E 025°05'8 3.9
2014-Jul-26 17:26N 35°21' E 025°09'0 0.0
2014-Jul-26 16:14N 35°21' E 025°09'0 0.2
2014-Jul-26 15:33N 35°21' E 025°09'2121.0
2014-Jul-26 14:33N 35°39' E 024°57'2524.7
2014-Jul-26 13:33N 36°01' E 024°42'2222.1
2014-Jul-26 12:33N 36°20' E 024°28'2524.0
2014-Jul-26 11:31N 36°42' E 024°12'2324.1
2014-Jul-26 10:33N 37°03' E 024°01'3324.2
2014-Jul-26 09:11N 37°34' E 023°45'1524.2
2014-Jul-26 08:34N 37°48' E 023°38'9 9.1
2014-Jul-26 07:34N 37°57' E 023°38'0 0.0
2014-Jul-26 06:32N 37°57' E 023°38'0 0.0
2014-Jul-26 05:32N 37°57' E 023°38'0 0.0
2014-Jul-26 04:32N 37°57' E 023°38'2 1.8
2014-Jul-26 03:33N 37°55' E 023°37'2020.2
2014-Jul-26 02:33N 37°37' E 023°48'3021.4
2014-Jul-26 01:09N 37°08' E 024°00'1220.9
2014-Jul-26 00:33N 36°57' E 024°06'2121.3
2014-Jul-25 23:33N 36°37' E 024°16'1919.5
2014-Jul-25 22:33N 36°20' E 024°28'2020.4
2014-Jul-25 21:33N 36°02' E 024°40'2019.9
2014-Jul-25 20:33N 35°45' E 024°53'2019.6
2014-Jul-25 19:33N 35°28' E 025°05'8 2.4
2014-Jul-25 16:07N 35°21' E 025°09'0 0.3
2014-Jul-25 15:33N 35°21' E 025°09'2019.6
2014-Jul-25 14:33N 35°38' E 024°58'2323.4
2014-Jul-25 13:34N 35°58' E 024°43'2424.1
2014-Jul-25 12:34N 36°19' E 024°28'2724.4
2014-Jul-25 11:28N 36°43' E 024°12'2224.0
2014-Jul-25 10:33N 37°03' E 024°01'3524.1
2014-Jul-25 09:05N 37°35' E 023°44'1324.3
2014-Jul-25 08:33N 37°47' E 023°38'9 9.4
2014-Jul-25 07:33N 37°57' E 023°38'0 0.0
2014-Jul-25 06:31N 37°57' E 023°38'2 0.7
2014-Jul-25 03:33N 37°55' E 023°37'4020.3
2014-Jul-25 01:33N 37°18' E 023°56'2120.6
2014-Jul-25 00:33N 36°58' E 024°05'2120.9
2014-Jul-24 23:34N 36°39' E 024°15'2121.0
2014-Jul-24 22:34N 36°21' E 024°28'2020.3
2014-Jul-24 21:34N 36°03' E 024°40'2020.1
2014-Jul-24 20:34N 35°45' E 024°52'2020.3
2014-Jul-24 19:33N 35°28' E 025°05'8 7.6
2014-Jul-24 18:33N 35°21' E 025°09'21 1.3
2014-Jul-24 02:28N 35°39' E 024°57'1920.9
2014-Jul-24 01:33N 35°56' E 024°45'2120.7
2014-Jul-24 00:33N 36°14' E 024°32'2120.5
2014-Jul-23 23:33N 36°31' E 024°19'2120.7
2014-Jul-23 22:33N 36°50' E 024°07'2121.4
2014-Jul-23 21:33N 37°10' E 023°57'2321.3
2014-Jul-23 20:28N 37°31' E 023°46'1921.1
2014-Jul-23 19:33N 37°49' E 023°37'8 7.7
2014-Jul-23 18:33N 37°57' E 023°38'0 0.0
2014-Jul-23 17:32N 37°57' E 023°38'0 0.0
2014-Jul-23 16:32N 37°57' E 023°38'0 0.0
2014-Jul-23 15:32N 37°57' E 023°38'0 0.0
2014-Jul-23 14:32N 37°57' E 023°38'0 0.0
2014-Jul-23 13:32N 37°57' E 023°38'0 0.0
2014-Jul-23 12:32N 37°57' E 023°38'0 0.0
2014-Jul-23 11:29N 37°57' E 023°38'0 0.0
2014-Jul-23 09:32N 37°57' E 023°38'0 0.0
2014-Jul-23 08:32N 37°57' E 023°38'0 0.0
2014-Jul-23 07:32N 37°57' E 023°38'0 0.0
2014-Jul-23 06:32N 37°57' E 023°38'0 0.0
2014-Jul-23 05:32N 37°57' E 023°38'2 1.2
2014-Jul-23 03:33N 37°54' E 023°38'4720.8
2014-Jul-23 01:17N 37°11' E 023°60'1520.2
2014-Jul-23 00:33N 36°57' E 024°06'2020.2
2014-Jul-22 23:32N 36°38' E 024°15'2120.2
2014-Jul-22 22:31N 36°20' E 024°28'1819.2
2014-Jul-22 21:34N 36°04' E 024°40'  
Track history (hours):
 
Tides and Currents Weather Stations Pressure Air Temp Water Temp Dewpoint Dewpoint Depression Visibility Wind Speed Wind Dir Waves Ship Positions

Knossos Palace

Last reported at 2014-Aug-01 21:33 UTC. Time now 2014-Aug-01 22:30 UTC.
Position N 37°10' E 023°58'.

Length 214 m; beam 26.4 m; draft 7.3 m.

Type: Passenger vessel. MMSI: 237641000.

Date/timePositionNaut miles runAvg speedWind from/ knotsBaromVisibWave heightAir tempDewpointWater temp
2014-Aug-01 21:33N 37°10' E 023°58'2621.7
2014-Aug-01 20:21N 37°34' E 023°45'1721.3
2014-Aug-01 19:33N 37°49' E 023°37'7 7.4
2014-Aug-01 18:33N 37°57' E 023°38'0 0.0
2014-Aug-01 17:32N 37°57' E 023°38'0 0.0
2014-Aug-01 16:32N 37°57' E 023°38'1 0.6
2014-Aug-01 15:33N 37°56' E 023°37'2121.1
2014-Aug-01 14:33N 37°37' E 023°48'2524.5
2014-Aug-01 13:33N 37°14' E 023°58'2424.5
2014-Aug-01 12:34N 36°51' E 024°09'2424.4
2014-Aug-01 11:33N 36°29' E 024°21'2423.8
2014-Aug-01 10:34N 36°08' E 024°36'2322.6
2014-Aug-01 09:33N 35°48' E 024°50'32 7.4
2014-Aug-01 05:18N 35°21' E 025°09'22 7.9
2014-Aug-01 02:33N 35°40' E 024°56'2020.4
2014-Aug-01 01:33N 35°58' E 024°44'2020.4
2014-Aug-01 00:33N 36°15' E 024°31'2120.9
2014-Jul-31 23:33N 36°33' E 024°18'2121.0
2014-Jul-31 22:33N 36°52' E 024°07'2221.6
2014-Jul-31 21:33N 37°12' E 023°57'2221.5
2014-Jul-31 20:33N 37°32' E 023°46'2121.2
2014-Jul-31 19:33N 37°52' E 023°37'5 4.9
2014-Jul-31 18:33N 37°57' E 023°38'0 0.0
2014-Jul-31 17:33N 37°57' E 023°38'0 0.0
2014-Jul-31 16:33N 37°57' E 023°38'0 0.0
2014-Jul-31 15:33N 37°57' E 023°38'0 0.0
2014-Jul-31 14:33N 37°57' E 023°38'0 0.0
2014-Jul-31 13:33N 37°57' E 023°38'0 0.0
2014-Jul-31 12:33N 37°57' E 023°38'0 0.0
2014-Jul-31 11:33N 37°57' E 023°38'0 0.0
2014-Jul-31 10:33N 37°57' E 023°38'0 0.0
2014-Jul-31 09:33N 37°57' E 023°38'0 0.0
2014-Jul-31 08:33N 37°57' E 023°38'0 0.0
2014-Jul-31 07:33N 37°57' E 023°38'0 0.0
2014-Jul-31 06:33N 37°57' E 023°38'0 0.0
2014-Jul-31 05:33N 37°57' E 023°38'0 0.0
2014-Jul-31 04:33N 37°57' E 023°38'2 1.9
2014-Jul-31 03:33N 37°55' E 023°37'1919.1
2014-Jul-31 02:33N 37°38' E 023°47'2120.6
2014-Jul-31 01:33N 37°18' E 023°56'2020.5
2014-Jul-31 00:33N 36°59' E 024°05'2221.1
2014-Jul-30 23:32N 36°39' E 024°15'2020.9
2014-Jul-30 22:33N 36°21' E 024°27'2020.4
2014-Jul-30 21:33N 36°03' E 024°40'2020.2
2014-Jul-30 20:33N 35°46' E 024°52'2120.5
2014-Jul-30 19:33N 35°28' E 025°05'8 8.2
2014-Jul-30 18:33N 35°21' E 025°09'0 0.0
2014-Jul-30 17:28N 35°21' E 025°09'0 0.0
2014-Jul-30 16:31N 35°21' E 025°09'0 0.1
2014-Jul-30 15:33N 35°21' E 025°09'2020.1
2014-Jul-30 14:33N 35°39' E 024°57'2423.9
2014-Jul-30 13:34N 35°59' E 024°42'2424.5
2014-Jul-30 12:34N 36°20' E 024°27'2424.1
2014-Jul-30 11:33N 36°41' E 024°12'2423.9
2014-Jul-30 10:33N 37°03' E 024°01'2423.9
2014-Jul-30 09:34N 37°25' E 023°49'2424.0
2014-Jul-30 08:34N 37°48' E 023°38'9 8.9
2014-Jul-30 07:33N 37°57' E 023°38'0 0.0
2014-Jul-30 06:31N 37°57' E 023°38'0 0.0
2014-Jul-30 05:31N 37°57' E 023°38'0 0.0
2014-Jul-30 04:31N 37°57' E 023°38'0 0.4
2014-Jul-30 03:33N 37°56' E 023°38'2019.7
2014-Jul-30 02:33N 37°38' E 023°47'2821.2
2014-Jul-30 01:13N 37°11' E 023°59'1420.8
2014-Jul-30 00:33N 36°59' E 024°05'2121.0
2014-Jul-29 23:33N 36°39' E 024°15'2120.9
2014-Jul-29 22:33N 36°21' E 024°27'2020.3
2014-Jul-29 21:33N 36°03' E 024°40'2019.9
2014-Jul-29 20:33N 35°46' E 024°52'2020.4
2014-Jul-29 19:33N 35°28' E 025°05'8 6.7
2014-Jul-29 18:19N 35°21' E 025°09'0 0.0
2014-Jul-29 17:23N 35°21' E 025°09'0 0.0
2014-Jul-29 16:29N 35°21' E 025°09'0 0.0
2014-Jul-29 15:33N 35°21' E 025°09'0 0.0
2014-Jul-29 14:33N 35°21' E 025°09'0 0.0
2014-Jul-29 13:33N 35°21' E 025°09'0 0.0
2014-Jul-29 12:33N 35°21' E 025°09'0 0.0
2014-Jul-29 11:24N 35°21' E 025°09'0 0.0
2014-Jul-29 10:32N 35°21' E 025°09'0 0.0
2014-Jul-29 09:33N 35°21' E 025°09'0 0.0
2014-Jul-29 08:33N 35°21' E 025°09'0 0.0
2014-Jul-29 07:33N 35°21' E 025°09'0 0.0
2014-Jul-29 06:32N 35°21' E 025°09'0 0.0
2014-Jul-29 05:27N 35°21' E 025°09'0 0.0
2014-Jul-29 04:33N 35°21' E 025°09'3 2.2
2014-Jul-29 03:25N 35°23' E 025°09'1820.4
2014-Jul-29 02:33N 35°38' E 024°58'2121.0
2014-Jul-29 01:33N 35°56' E 024°45'2121.1
2014-Jul-29 00:33N 36°15' E 024°31'2120.6
2014-Jul-28 23:33N 36°32' E 024°19'2020.4
2014-Jul-28 22:33N 36°51' E 024°08'2120.9
2014-Jul-28 21:33N 37°10' E 023°57'2121.1
2014-Jul-28 20:33N 37°30' E 023°47'2121.2
2014-Jul-28 19:33N 37°49' E 023°37'8 7.8
2014-Jul-28 18:33N 37°57' E 023°38'0 0.0
2014-Jul-28 17:31N 37°57' E 023°38'0 0.0
2014-Jul-28 16:31N 37°57' E 023°38'0 0.0
2014-Jul-28 15:31N 37°57' E 023°38'0 0.0
2014-Jul-28 14:31N 37°57' E 023°38'0 0.0
2014-Jul-28 13:31N 37°57' E 023°38'0 0.0
2014-Jul-28 12:31N 37°57' E 023°38'0 0.0
2014-Jul-28 11:31N 37°57' E 023°38'0 0.0
2014-Jul-28 10:28N 37°57' E 023°38'0 0.0
2014-Jul-28 09:31N 37°57' E 023°38'0 0.0
2014-Jul-28 08:31N 37°57' E 023°38'0 0.0
2014-Jul-28 07:31N 37°57' E 023°38'0 0.0
2014-Jul-28 06:31N 37°57' E 023°38'0 0.0
2014-Jul-28 05:31N 37°57' E 023°38'0 0.0
2014-Jul-28 04:31N 37°57' E 023°38'0 0.5
2014-Jul-28 03:33N 37°56' E 023°38'1919.0
2014-Jul-28 02:33N 37°39' E 023°47'2121.0
2014-Jul-28 01:33N 37°19' E 023°55'2120.8
2014-Jul-28 00:33N 36°59' E 024°04'2221.1
2014-Jul-27 23:31N 36°39' E 024°15'2020.8
2014-Jul-27 22:33N 36°22' E 024°28'2020.4
2014-Jul-27 21:33N 36°04' E 024°40'2120.5
2014-Jul-27 20:33N 35°46' E 024°52'2720.9
2014-Jul-27 19:16N 35°23' E 025°09'2 2.8
2014-Jul-27 18:26N 35°21' E 025°09'0 0.0
2014-Jul-27 15:33N 35°21' E 025°09'2020.4
2014-Jul-27 14:33N 35°39' E 024°57'2424.2
2014-Jul-27 13:34N 35°60' E 024°42'2424.2
2014-Jul-27 12:33N 36°21' E 024°27'2423.7
2014-Jul-27 11:32N 36°42' E 024°13'2323.8
2014-Jul-27 10:33N 37°03' E 024°01'2724.2
2014-Jul-27 09:25N 37°28' E 023°48'2123.7
2014-Jul-27 08:33N 37°48' E 023°38'9 9.1
2014-Jul-27 07:33N 37°57' E 023°38'0 0.0
2014-Jul-27 06:28N 37°57' E 023°38'0 0.0
2014-Jul-27 05:25N 37°57' E 023°38'0 0.0
2014-Jul-27 04:31N 37°57' E 023°38'2 1.8
2014-Jul-27 03:33N 37°55' E 023°37'1918.9
2014-Jul-27 02:33N 37°38' E 023°47'4120.6
2014-Jul-27 00:33N 36°59' E 024°05'2221.2
2014-Jul-26 23:31N 36°39' E 024°15'2021.0
2014-Jul-26 22:34N 36°21' E 024°27'2120.6
2014-Jul-26 21:33N 36°03' E 024°40'2020.3
2014-Jul-26 20:33N 35°46' E 024°52'2020.3
2014-Jul-26 19:33N 35°28' E 025°05'8 3.9
2014-Jul-26 17:26N 35°21' E 025°09'0 0.0
2014-Jul-26 16:14N 35°21' E 025°09'0 0.2
2014-Jul-26 15:33N 35°21' E 025°09'2121.0
2014-Jul-26 14:33N 35°39' E 024°57'2524.7
2014-Jul-26 13:33N 36°01' E 024°42'2222.1
2014-Jul-26 12:33N 36°20' E 024°28'2524.0
2014-Jul-26 11:31N 36°42' E 024°12'2324.1
2014-Jul-26 10:33N 37°03' E 024°01'3324.2
2014-Jul-26 09:11N 37°34' E 023°45'1524.2
2014-Jul-26 08:34N 37°48' E 023°38'9 9.1
2014-Jul-26 07:34N 37°57' E 023°38'0 0.0
2014-Jul-26 06:32N 37°57' E 023°38'0 0.0
2014-Jul-26 05:32N 37°57' E 023°38'0 0.0
2014-Jul-26 04:32N 37°57' E 023°38'2 1.8
2014-Jul-26 03:33N 37°55' E 023°37'2020.2
2014-Jul-26 02:33N 37°37' E 023°48'3021.4
2014-Jul-26 01:09N 37°08' E 024°00'1220.9
2014-Jul-26 00:33N 36°57' E 024°06'2121.3
2014-Jul-25 23:33N 36°37' E 024°16'1919.5
2014-Jul-25 22:33N 36°20' E 024°28'2020.4
2014-Jul-25 21:33N 36°02' E 024°40'2019.9
2014-Jul-25 20:33N 35°45' E 024°53'2019.6
2014-Jul-25 19:33N 35°28' E 025°05'8 2.4
2014-Jul-25 16:07N 35°21' E 025°09'0 0.3
2014-Jul-25 15:33N 35°21' E 025°09'2019.6
2014-Jul-25 14:33N 35°38' E 024°58'2323.4
2014-Jul-25 13:34N 35°58' E 024°43'2424.1
2014-Jul-25 12:34N 36°19' E 024°28'2724.4
2014-Jul-25 11:28N 36°43' E 024°12'2224.0
2014-Jul-25 10:33N 37°03' E 024°01'3524.1
2014-Jul-25 09:05N 37°35' E 023°44'1324.3
2014-Jul-25 08:33N 37°47' E 023°38'9 9.4
2014-Jul-25 07:33N 37°57' E 023°38'0 0.0
2014-Jul-25 06:31N 37°57' E 023°38'2 0.7
2014-Jul-25 03:33N 37°55' E 023°37'4020.3
2014-Jul-25 01:33N 37°18' E 023°56'2120.6
2014-Jul-25 00:33N 36°58' E 024°05'2120.9
2014-Jul-24 23:34N 36°39' E 024°15'2121.0
2014-Jul-24 22:34N 36°21' E 024°28'2020.3
2014-Jul-24 21:34N 36°03' E 024°40'2020.1
2014-Jul-24 20:34N 35°45' E 024°52'2020.3
2014-Jul-24 19:33N 35°28' E 025°05'8 7.6
2014-Jul-24 18:33N 35°21' E 025°09'21 1.3
2014-Jul-24 02:28N 35°39' E 024°57'1920.9
2014-Jul-24 01:33N 35°56' E 024°45'2120.7
2014-Jul-24 00:33N 36°14' E 024°32'2120.5
2014-Jul-23 23:33N 36°31' E 024°19'2120.7
2014-Jul-23 22:33N 36°50' E 024°07'2121.4
2014-Jul-23 21:33N 37°10' E 023°57'2321.3
2014-Jul-23 20:28N 37°31' E 023°46'1921.1
2014-Jul-23 19:33N 37°49' E 023°37'8 7.7
2014-Jul-23 18:33N 37°57' E 023°38'0 0.0
2014-Jul-23 17:32N 37°57' E 023°38'0 0.0
2014-Jul-23 16:32N 37°57' E 023°38'0 0.0
2014-Jul-23 15:32N 37°57' E 023°38'0 0.0
2014-Jul-23 14:32N 37°57' E 023°38'0 0.0
2014-Jul-23 13:32N 37°57' E 023°38'0 0.0
2014-Jul-23 12:32N 37°57' E 023°38'0 0.0
2014-Jul-23 11:29N 37°57' E 023°38'0 0.0
2014-Jul-23 09:32N 37°57' E 023°38'0 0.0
2014-Jul-23 08:32N 37°57' E 023°38'0 0.0
2014-Jul-23 07:32N 37°57' E 023°38'0 0.0
2014-Jul-23 06:32N 37°57' E 023°38'0 0.0
2014-Jul-23 05:32N 37°57' E 023°38'2 1.2
2014-Jul-23 03:33N 37°54' E 023°38'4720.8
2014-Jul-23 01:17N 37°11' E 023°60'1520.2
2014-Jul-23 00:33N 36°57' E 024°06'2020.2
2014-Jul-22 23:32N 36°38' E 024°15'2120.2
2014-Jul-22 22:31N 36°20' E 024°28'1819.2
2014-Jul-22 21:34N 36°04' E 024°40'  

Dump ship's entire track history